createdAt,value
2019-05-05T00:02:06.373Z,1.70
2019-05-05T00:04:47.146Z,1.80
2019-05-05T00:07:20.758Z,1.73
2019-05-05T00:09:50.541Z,1.37
2019-05-05T00:12:39.368Z,1.93
2019-05-05T00:15:19.560Z,1.60
2019-05-05T00:17:49.393Z,2.03
2019-05-05T00:20:19.396Z,2.37
2019-05-05T00:22:49.495Z,2.10
2019-05-05T00:25:19.201Z,2.40
2019-05-05T00:27:49.033Z,2.13
2019-05-05T00:30:18.788Z,1.90
2019-05-05T00:32:48.629Z,2.30
2019-05-05T00:35:18.480Z,2.10
2019-05-05T00:37:48.237Z,1.83
2019-05-05T00:40:18.018Z,2.60
2019-05-05T00:42:47.760Z,2.23
2019-05-05T00:45:17.440Z,2.37
2019-05-05T00:47:51.778Z,2.97
2019-05-05T00:50:22.624Z,2.83
2019-05-05T00:52:52.345Z,2.50
2019-05-05T00:55:24.330Z,2.43
2019-05-05T00:57:54.787Z,3.27
2019-05-05T01:00:40.433Z,2.63
2019-05-05T01:03:10.533Z,2.07
2019-05-05T01:06:02.190Z,2.37
2019-05-05T01:08:31.961Z,2.70
2019-05-05T01:11:01.700Z,2.40
2019-05-05T01:13:31.406Z,2.40
2019-05-05T01:16:01.107Z,2.13
2019-05-05T01:18:30.886Z,2.73
2019-05-05T01:21:00.578Z,2.40
2019-05-05T01:23:30.276Z,2.50
2019-05-05T01:26:00.270Z,2.60
2019-05-05T01:28:30.061Z,3.13
2019-05-05T01:31:02.940Z,3.00
2019-05-05T01:33:54.570Z,2.37
2019-05-05T01:36:25.406Z,1.83
2019-05-05T01:39:05.584Z,2.40
2019-05-05T01:41:39.869Z,2.70
2019-05-05T01:44:09.564Z,2.57
2019-05-05T01:46:39.280Z,2.37
2019-05-05T01:49:08.956Z,2.30
2019-05-05T01:51:38.708Z,2.30
2019-05-05T01:54:08.421Z,2.83
2019-05-05T01:56:38.661Z,2.97
2019-05-05T01:59:08.493Z,3.30
2019-05-05T02:01:38.325Z,2.93
2019-05-05T02:04:08.312Z,2.60
2019-05-05T02:06:37.996Z,2.70
2019-05-05T02:09:07.698Z,2.10
2019-05-05T02:11:39.304Z,3.07
2019-05-05T02:14:08.990Z,2.83
2019-05-05T02:16:39.077Z,3.07
2019-05-05T02:19:08.781Z,3.40
2019-05-05T02:21:38.500Z,2.83
2019-05-05T02:24:08.207Z,2.93
2019-05-05T02:26:37.914Z,3.23
2019-05-05T02:29:14.292Z,3.63
2019-05-05T02:32:01.852Z,3.07
2019-05-05T02:34:35.983Z,2.90
2019-05-05T02:37:05.786Z,3.17
2019-05-05T02:39:39.190Z,3.53
2019-05-05T02:42:06.857Z,3.17
2019-05-05T02:44:37.062Z,2.97
2019-05-05T02:47:21.989Z,3.73
2019-05-05T02:49:54.722Z,3.70
2019-05-05T02:52:24.562Z,3.90
2019-05-05T02:54:54.800Z,3.27
2019-05-05T02:57:24.812Z,3.50
2019-05-05T03:00:00.189Z,4.33
2019-05-05T03:02:32.320Z,4.00
2019-05-05T03:05:04.188Z,3.10
2019-05-05T03:07:34.469Z,3.87
2019-05-05T03:10:04.699Z,4.13
2019-05-05T03:12:36.125Z,3.90
2019-05-05T03:15:06.394Z,3.63
2019-05-05T03:17:36.246Z,3.70
2019-05-05T03:20:06.052Z,4.93
2019-05-05T03:22:35.830Z,4.87
2019-05-05T03:25:05.558Z,4.57
2019-05-05T03:27:35.852Z,4.73
2019-05-05T03:30:05.682Z,4.50
2019-05-05T03:32:36.154Z,4.63
2019-05-05T03:35:06.208Z,4.90
2019-05-05T03:37:36.285Z,5.20
2019-05-05T03:40:16.005Z,5.87
2019-05-05T03:42:54.767Z,4.57
2019-05-05T03:45:35.549Z,5.00
2019-05-05T03:48:05.483Z,4.50
2019-05-05T03:50:35.272Z,3.97
2019-05-05T03:53:05.233Z,5.70
2019-05-05T03:55:35.244Z,4.73
2019-05-05T03:58:04.985Z,4.80
2019-05-05T04:01:06.005Z,5.40
2019-05-05T04:03:36.315Z,4.90
2019-05-05T04:06:07.296Z,4.80
2019-05-05T04:08:37.226Z,5.27
2019-05-05T04:11:07.396Z,5.00
2019-05-05T04:13:37.308Z,5.27
2019-05-05T04:16:34.127Z,5.33
2019-05-05T04:19:04.969Z,4.83
2019-05-05T04:21:36.822Z,5.63
2019-05-05T04:24:06.812Z,6.17
2019-05-05T04:26:36.542Z,5.00
2019-05-05T04:29:06.466Z,4.50
2019-05-05T04:31:36.245Z,5.10
2019-05-05T04:34:06.075Z,4.90
2019-05-05T04:36:35.940Z,5.40
2019-05-05T04:39:06.287Z,5.30
2019-05-05T04:41:37.205Z,5.00
2019-05-05T04:44:08.024Z,4.67
2019-05-05T04:46:51.195Z,5.20
2019-05-05T04:49:33.992Z,4.60
2019-05-05T04:52:06.866Z,4.73
2019-05-05T04:54:47.413Z,4.57
2019-05-05T04:57:18.086Z,4.60
2019-05-05T04:59:50.103Z,4.90
2019-05-05T05:02:43.634Z,5.87
2019-05-05T05:05:33.760Z,4.67
2019-05-05T05:08:03.823Z,4.43
2019-05-05T05:10:34.574Z,4.87
2019-05-05T05:13:04.755Z,4.83
2019-05-05T05:15:34.752Z,3.80
2019-05-05T05:18:14.988Z,4.50
2019-05-05T05:20:45.029Z,4.50
2019-05-05T05:23:15.068Z,4.70
2019-05-05T05:25:45.584Z,4.20
2019-05-05T05:28:15.965Z,4.47
2019-05-05T05:30:45.908Z,4.17
2019-05-05T05:33:15.830Z,3.60
2019-05-05T05:35:45.653Z,4.17
2019-05-05T05:38:15.834Z,4.17
2019-05-05T05:40:50.236Z,4.03
2019-05-05T05:43:25.901Z,4.50
2019-05-05T05:46:06.377Z,4.20
2019-05-05T05:48:45.413Z,5.43
2019-05-05T05:51:19.400Z,5.07
2019-05-05T05:53:49.276Z,4.77
2019-05-05T05:56:19.077Z,4.30
2019-05-05T05:58:48.858Z,4.93
2019-05-05T06:01:18.673Z,4.47
2019-05-05T06:03:48.332Z,4.63
2019-05-05T06:06:18.553Z,3.73
2019-05-05T06:08:48.232Z,4.77
2019-05-05T06:11:18.877Z,4.37
2019-05-05T06:13:48.653Z,4.97
2019-05-05T06:16:18.497Z,5.27
2019-05-05T06:18:48.236Z,5.00
2019-05-05T06:21:17.960Z,4.63
2019-05-05T06:23:47.814Z,4.03
2019-05-05T06:26:17.604Z,4.80
2019-05-05T06:28:47.616Z,4.07
2019-05-05T06:31:17.311Z,4.07
2019-05-05T06:33:47.104Z,4.10
2019-05-05T06:36:16.782Z,4.30
2019-05-05T06:38:46.559Z,3.83
2019-05-05T06:41:31.643Z,4.77
2019-05-05T06:44:11.418Z,3.80
2019-05-05T06:47:15.523Z,5.03
2019-05-05T06:49:45.389Z,4.43
2019-05-05T06:52:15.056Z,4.17
2019-05-05T06:54:44.741Z,4.37
2019-05-05T06:57:14.412Z,3.50
2019-05-05T06:59:44.314Z,4.10
2019-05-05T07:02:14.538Z,4.40
2019-05-05T07:04:44.687Z,3.80
2019-05-05T07:07:14.728Z,4.60
2019-05-05T07:09:45.638Z,3.70
2019-05-05T07:12:19.008Z,3.30
2019-05-05T07:14:49.858Z,3.80
2019-05-05T07:17:19.618Z,4.57
2019-05-05T07:19:49.824Z,4.23
2019-05-05T07:22:19.484Z,3.83
2019-05-05T07:24:49.593Z,3.63
2019-05-05T07:27:19.756Z,3.77
2019-05-05T07:29:51.067Z,4.47
2019-05-05T07:32:45.306Z,5.90
2019-05-05T07:35:34.518Z,3.67
2019-05-05T07:38:05.013Z,3.87
2019-05-05T07:40:34.697Z,3.97
2019-05-05T07:43:04.563Z,3.83
2019-05-05T07:45:34.454Z,3.83
2019-05-05T07:48:06.226Z,3.50
2019-05-05T07:50:36.290Z,4.13
2019-05-05T07:53:14.576Z,3.97
2019-05-05T07:55:38.397Z,3.70
2019-05-05T07:58:08.083Z,4.33
2019-05-05T08:00:37.930Z,3.73
2019-05-05T08:03:07.593Z,4.10
2019-05-05T08:05:37.352Z,2.77
2019-05-05T08:08:07.040Z,3.20
2019-05-05T08:10:36.771Z,3.47
2019-05-05T08:13:06.477Z,3.90
2019-05-05T08:15:36.599Z,3.70
2019-05-05T08:18:24.347Z,3.97
2019-05-05T08:20:57.166Z,3.10
2019-05-05T08:23:46.115Z,2.93
2019-05-05T08:26:37.954Z,2.60
2019-05-05T08:29:25.506Z,2.83
2019-05-05T08:31:59.899Z,3.50
2019-05-05T08:34:30.201Z,2.90
2019-05-05T08:37:00.130Z,2.93
2019-05-05T08:39:31.154Z,3.10
2019-05-05T08:42:00.827Z,2.67
2019-05-05T08:44:30.856Z,2.63
2019-05-05T08:47:00.548Z,3.57
2019-05-05T08:49:30.660Z,3.17
2019-05-05T08:52:00.542Z,3.17
2019-05-05T08:54:30.226Z,3.37
2019-05-05T08:56:59.938Z,3.27
2019-05-05T08:59:29.641Z,3.00
2019-05-05T09:01:59.411Z,2.30
2019-05-05T09:04:33.997Z,3.50
2019-05-05T09:07:07.033Z,2.87
2019-05-05T09:09:36.759Z,2.80
2019-05-05T09:12:06.473Z,3.00
2019-05-05T09:14:36.686Z,2.40
2019-05-05T09:17:06.514Z,2.63
2019-05-05T09:19:36.284Z,2.90
2019-05-05T09:22:08.737Z,2.27
2019-05-05T09:24:56.857Z,2.90
2019-05-05T09:27:53.571Z,2.97
2019-05-05T09:30:44.423Z,2.10
2019-05-05T09:33:14.668Z,2.30
2019-05-05T09:35:45.542Z,2.93
2019-05-05T09:38:15.368Z,2.57
2019-05-05T09:40:45.299Z,2.13
2019-05-05T09:43:15.260Z,1.73
2019-05-05T09:45:44.993Z,2.50
2019-05-05T09:48:15.070Z,2.10
2019-05-05T09:50:44.851Z,2.03
2019-05-05T09:53:14.737Z,1.50
2019-05-05T09:55:44.556Z,2.07
2019-05-05T09:58:14.273Z,2.20
2019-05-05T10:00:45.824Z,2.00
2019-05-05T10:03:16.572Z,1.90
2019-05-05T10:05:46.258Z,1.57
2019-05-05T10:08:15.993Z,1.87
2019-05-05T10:10:45.685Z,2.07
2019-05-05T10:13:15.753Z,2.07
2019-05-05T10:15:46.544Z,1.50
2019-05-05T10:18:16.332Z,2.07
2019-05-05T10:20:46.203Z,1.70
2019-05-05T10:23:15.952Z,1.47
2019-05-05T10:25:48.061Z,1.90
2019-05-05T10:28:17.873Z,1.97
2019-05-05T10:30:47.995Z,1.83
2019-05-05T10:33:17.713Z,2.67
2019-05-05T10:35:47.744Z,1.60
2019-05-05T10:38:17.484Z,1.70
2019-05-05T10:40:48.381Z,2.07
2019-05-05T10:43:18.354Z,2.13
2019-05-05T10:45:48.357Z,1.63
2019-05-05T10:48:18.146Z,2.30
2019-05-05T10:50:47.825Z,1.93
2019-05-05T10:53:17.651Z,1.87
2019-05-05T10:55:47.360Z,1.83
2019-05-05T10:58:17.107Z,2.07
2019-05-05T11:00:48.713Z,1.80
2019-05-05T11:03:18.518Z,1.80
2019-05-05T11:05:48.220Z,2.10
2019-05-05T11:08:17.920Z,1.73
2019-05-05T11:10:47.716Z,2.03
2019-05-05T11:13:17.591Z,1.90
2019-05-05T11:15:47.461Z,1.67
2019-05-05T11:18:31.565Z,1.80
2019-05-05T11:21:04.634Z,1.70
2019-05-05T11:23:34.741Z,1.90
2019-05-05T11:26:04.545Z,1.47
2019-05-05T11:28:34.300Z,1.70
2019-05-05T11:31:04.491Z,1.90
2019-05-05T11:33:57.821Z,1.57
2019-05-05T11:36:49.708Z,1.60
2019-05-05T11:39:19.447Z,1.90
2019-05-05T11:41:54.758Z,1.77
2019-05-05T11:44:24.947Z,1.70
2019-05-05T11:46:54.864Z,1.80
2019-05-05T11:49:24.699Z,1.63
2019-05-05T11:51:54.484Z,1.67
2019-05-05T11:54:24.768Z,1.97
2019-05-05T11:56:55.489Z,1.43
2019-05-05T11:59:25.184Z,1.27
2019-05-05T12:01:55.252Z,1.17
2019-05-05T12:04:25.292Z,1.27
2019-05-05T12:06:56.152Z,1.20
2019-05-05T12:09:44.275Z,1.10
2019-05-05T12:12:15.349Z,1.60
2019-05-05T12:14:45.841Z,1.30
2019-05-05T12:17:19.229Z,1.70
2019-05-05T12:19:49.045Z,1.90
2019-05-05T12:22:18.807Z,1.33
2019-05-05T12:24:49.256Z,1.60
2019-05-05T12:27:33.864Z,1.77
2019-05-05T12:30:07.532Z,1.40
2019-05-05T12:32:37.681Z,1.40
2019-05-05T12:35:07.803Z,1.13
2019-05-05T12:37:38.016Z,1.27
2019-05-05T12:40:07.917Z,1.40
2019-05-05T12:42:38.105Z,1.40
2019-05-05T12:45:10.437Z,1.40
2019-05-05T12:48:08.665Z,1.17
2019-05-05T12:50:38.564Z,1.10
2019-05-05T12:53:08.266Z,0.77
2019-05-05T12:55:41.352Z,1.00
2019-05-05T12:58:10.013Z,0.80
2019-05-05T13:00:43.219Z,1.30
2019-05-05T13:03:13.577Z,1.10
2019-05-05T13:05:44.622Z,1.47
2019-05-05T13:08:14.426Z,1.03
2019-05-05T13:10:44.282Z,1.07
2019-05-05T13:13:14.161Z,1.30
2019-05-05T13:15:44.369Z,1.13
2019-05-05T13:18:14.222Z,1.17
2019-05-05T13:20:53.689Z,0.77
2019-05-05T13:23:30.522Z,1.20
2019-05-05T13:26:18.295Z,1.10
2019-05-05T13:28:47.957Z,1.20
2019-05-05T13:31:17.800Z,0.87
2019-05-05T13:33:47.557Z,1.20
2019-05-05T13:36:17.429Z,0.90
2019-05-05T13:38:47.082Z,1.50
2019-05-05T13:41:16.775Z,1.33
2019-05-05T13:43:58.925Z,1.00
2019-05-05T13:46:33.800Z,1.17
2019-05-05T13:49:26.351Z,1.00
2019-05-05T13:51:57.765Z,1.17
2019-05-05T13:54:27.536Z,1.00
2019-05-05T13:56:57.472Z,1.10
2019-05-05T13:59:27.146Z,0.90
2019-05-05T14:01:56.929Z,0.90
2019-05-05T14:04:26.794Z,1.00
2019-05-05T14:06:56.485Z,1.00
2019-05-05T14:09:26.211Z,1.10
2019-05-05T14:11:56.235Z,1.10
2019-05-05T14:14:26.073Z,0.87
2019-05-05T14:16:55.770Z,0.90
2019-05-05T14:19:25.448Z,1.10
2019-05-05T14:21:55.193Z,1.40
2019-05-05T14:24:39.259Z,1.40
2019-05-05T14:27:09.180Z,1.20
2019-05-05T14:29:47.765Z,1.03
2019-05-05T14:32:18.570Z,1.13
2019-05-05T14:34:54.712Z,0.90
2019-05-05T14:37:41.834Z,1.00
2019-05-05T14:40:11.580Z,0.83
2019-05-05T14:42:43.388Z,1.10
2019-05-05T14:45:15.205Z,1.30
2019-05-05T14:47:44.573Z,0.90
2019-05-05T14:50:14.592Z,0.90
2019-05-05T14:52:44.544Z,1.00
2019-05-05T14:55:15.182Z,1.00
2019-05-05T14:57:45.476Z,0.90
2019-05-05T15:00:18.518Z,1.00
2019-05-05T15:02:49.834Z,0.87
2019-05-05T15:05:37.315Z,0.90
2019-05-05T15:08:13.664Z,0.83
2019-05-05T15:11:05.121Z,1.10
2019-05-05T15:13:34.898Z,1.00
2019-05-05T15:16:04.714Z,1.13
2019-05-05T15:18:34.677Z,1.10
2019-05-05T15:21:04.596Z,0.90
2019-05-05T15:23:34.528Z,1.10
2019-05-05T15:26:04.604Z,1.13
2019-05-05T15:28:34.469Z,1.23
2019-05-05T15:31:04.765Z,1.17
2019-05-05T15:33:35.681Z,1.10
2019-05-05T15:36:05.659Z,0.70
2019-05-05T15:38:35.405Z,0.90
2019-05-05T15:41:06.405Z,0.93
2019-05-05T15:43:36.155Z,1.00
2019-05-05T15:46:05.961Z,0.90
2019-05-05T15:48:35.671Z,0.80
2019-05-05T15:51:06.566Z,0.90
2019-05-05T15:53:36.358Z,0.90
2019-05-05T15:56:06.089Z,1.17
2019-05-05T15:58:36.721Z,0.60
2019-05-05T16:01:06.471Z,0.90
2019-05-05T16:03:36.275Z,0.60
2019-05-05T16:06:06.181Z,0.80
2019-05-05T16:08:36.021Z,0.80
2019-05-05T16:11:05.708Z,1.13
2019-05-05T16:13:35.759Z,1.17
2019-05-05T16:16:30.705Z,0.83
2019-05-05T16:19:08.610Z,0.70
2019-05-05T16:24:24.592Z,0.70
2019-05-05T16:26:56.522Z,0.70
2019-05-05T16:29:26.958Z,0.67
2019-05-05T16:31:56.743Z,0.83
2019-05-05T16:34:26.529Z,0.80
2019-05-05T16:36:57.013Z,0.80
2019-05-05T16:39:27.055Z,0.80
2019-05-05T16:41:57.163Z,0.60
2019-05-05T16:44:27.115Z,1.03
2019-05-05T16:46:57.433Z,0.80
2019-05-05T16:49:28.509Z,0.70
2019-05-05T16:52:04.067Z,0.80
2019-05-05T16:54:39.165Z,0.80
2019-05-05T16:57:09.124Z,0.93
2019-05-05T16:59:39.052Z,0.90
2019-05-05T17:02:08.870Z,0.90
2019-05-05T17:04:38.790Z,0.77
2019-05-05T17:07:08.832Z,0.93
2019-05-05T17:09:38.568Z,1.20
2019-05-05T17:12:11.156Z,0.90
2019-05-05T17:14:50.594Z,0.93
2019-05-05T17:17:44.460Z,1.07
2019-05-05T17:20:16.256Z,1.00
2019-05-05T17:22:58.409Z,1.00
2019-05-05T17:25:28.339Z,1.00
2019-05-05T17:27:58.251Z,1.40
2019-05-05T17:30:28.043Z,0.90
2019-05-05T17:32:57.775Z,1.10
2019-05-05T17:35:27.475Z,1.03
2019-05-05T17:38:07.490Z,1.43
2019-05-05T17:40:55.327Z,1.40
2019-05-05T17:43:44.821Z,1.10
2019-05-05T17:46:20.685Z,1.33
2019-05-05T17:49:04.567Z,0.90
2019-05-05T17:52:03.700Z,1.30
2019-05-05T17:54:36.446Z,1.10
2019-05-05T17:57:06.475Z,1.17
2019-05-05T17:59:36.485Z,1.60
2019-05-05T18:02:06.286Z,1.20
2019-05-05T18:04:35.960Z,1.00
2019-05-05T18:07:21.259Z,1.33
2019-05-05T18:10:03.982Z,1.10
2019-05-05T18:12:54.273Z,1.30
2019-05-05T18:15:43.465Z,1.10
2019-05-05T18:18:13.942Z,1.30
2019-05-05T18:20:44.966Z,1.17
2019-05-05T18:23:14.816Z,1.20
2019-05-05T18:25:44.527Z,1.20
2019-05-05T18:28:19.634Z,1.27
2019-05-05T18:30:46.168Z,1.67
2019-05-05T18:33:15.941Z,1.43
2019-05-05T18:35:45.630Z,1.40
2019-05-05T18:38:16.305Z,1.30
2019-05-05T18:40:46.560Z,1.30
2019-05-05T18:43:21.834Z,1.70
2019-05-05T18:46:01.146Z,1.30
2019-05-05T18:48:30.885Z,1.43
2019-05-05T18:51:00.593Z,1.70
2019-05-05T18:53:30.358Z,1.20
2019-05-05T18:56:00.048Z,1.67
2019-05-05T18:58:30.517Z,1.93
2019-05-05T19:01:31.336Z,1.60
2019-05-05T19:04:20.175Z,1.30
2019-05-05T19:06:57.420Z,1.57
2019-05-05T19:09:27.120Z,1.40
2019-05-05T19:11:58.757Z,1.67
2019-05-05T19:14:30.353Z,1.40
2019-05-05T19:17:00.539Z,1.90
2019-05-05T19:19:30.550Z,1.47
2019-05-05T19:22:05.062Z,1.87
2019-05-05T19:24:35.411Z,2.00
2019-05-05T19:27:05.269Z,1.93
2019-05-05T19:29:36.087Z,1.60
2019-05-05T19:32:05.848Z,1.77
2019-05-05T19:34:36.692Z,1.20
2019-05-05T19:37:06.744Z,1.30
2019-05-05T19:39:36.520Z,1.57
2019-05-05T19:42:06.474Z,1.13
2019-05-05T19:44:36.683Z,1.50
2019-05-05T19:47:13.886Z,1.67
2019-05-05T19:49:47.951Z,1.23
2019-05-05T19:52:17.765Z,1.57
2019-05-05T19:54:47.721Z,1.43
2019-05-05T19:57:17.567Z,1.83
2019-05-05T19:59:47.267Z,1.40
2019-05-05T20:02:17.012Z,1.50
2019-05-05T20:04:46.754Z,1.60
2019-05-05T20:07:16.857Z,1.93
2019-05-05T20:09:46.696Z,2.03
2019-05-05T20:12:17.558Z,1.87
2019-05-05T20:14:47.276Z,1.60
2019-05-05T20:17:23.942Z,1.37
2019-05-05T20:19:54.651Z,1.50
2019-05-05T20:22:24.595Z,1.37
2019-05-05T20:24:54.317Z,1.40
2019-05-05T20:27:24.090Z,1.20
2019-05-05T20:29:53.860Z,1.30
2019-05-05T20:32:34.178Z,1.90
2019-05-05T20:35:25.865Z,1.27
2019-05-05T20:38:08.619Z,1.70
2019-05-05T20:40:40.174Z,2.00
2019-05-05T20:43:09.986Z,1.53
2019-05-05T20:45:39.726Z,2.63
2019-05-05T20:48:09.525Z,1.80
2019-05-05T20:50:39.348Z,1.60
2019-05-05T20:53:09.031Z,1.43
2019-05-05T20:55:38.897Z,1.57
2019-05-05T20:58:08.653Z,2.10
2019-05-05T21:00:39.017Z,1.80
2019-05-05T21:03:08.753Z,2.07
2019-05-05T21:05:38.529Z,1.43
2019-05-05T21:08:08.306Z,1.93
2019-05-05T21:10:38.027Z,1.70
2019-05-05T21:13:07.807Z,1.43
2019-05-05T21:15:37.624Z,1.43
2019-05-05T21:18:07.421Z,1.40
2019-05-05T21:20:37.159Z,1.87
2019-05-05T21:23:15.014Z,1.60
2019-05-05T21:25:51.491Z,1.87
2019-05-05T21:28:21.305Z,1.70
2019-05-05T21:30:50.998Z,1.77
2019-05-05T21:33:23.926Z,1.50
2019-05-05T21:35:55.070Z,1.53
2019-05-05T21:38:25.142Z,1.73
2019-05-05T21:40:54.940Z,1.77
2019-05-05T21:43:26.949Z,1.93
2019-05-05T21:45:56.663Z,1.73
2019-05-05T21:48:26.527Z,2.00
2019-05-05T21:51:04.698Z,1.43
2019-05-05T21:53:43.461Z,2.47
2019-05-05T21:56:31.450Z,1.77
2019-05-05T21:59:01.237Z,2.00
2019-05-05T22:01:38.747Z,1.43
2019-05-05T22:04:04.144Z,1.43
2019-05-05T22:06:34.434Z,2.10
2019-05-05T22:09:06.454Z,2.10
2019-05-05T22:11:37.748Z,1.70
2019-05-05T22:14:07.494Z,2.27
2019-05-05T22:16:37.936Z,1.60
2019-05-05T22:19:08.039Z,1.93
2019-05-05T22:21:54.498Z,1.80
2019-05-05T22:24:24.412Z,1.70
2019-05-05T22:26:54.547Z,1.63
2019-05-05T22:29:24.868Z,2.40
2019-05-05T22:31:54.994Z,1.80
2019-05-05T22:34:24.665Z,1.60
2019-05-05T22:36:54.544Z,2.00
2019-05-05T22:39:24.516Z,2.37
2019-05-05T22:41:54.471Z,2.03
2019-05-05T22:44:24.980Z,1.87
2019-05-05T22:46:55.157Z,2.40
2019-05-05T22:49:25.458Z,2.20
2019-05-05T22:51:59.027Z,2.30
2019-05-05T22:54:28.817Z,2.40
2019-05-05T22:56:58.619Z,2.10
2019-05-05T22:59:28.277Z,2.33
2019-05-05T23:01:58.535Z,2.40
2019-05-05T23:04:54.570Z,1.97
2019-05-05T23:07:28.116Z,2.47
2019-05-05T23:09:57.825Z,2.40
2019-05-05T23:12:27.533Z,2.20
2019-05-05T23:14:57.708Z,2.40
2019-05-05T23:17:37.104Z,2.73
2019-05-05T23:20:38.410Z,2.70
2019-05-05T23:23:15.988Z,2.30
2019-05-05T23:25:46.772Z,2.17
2019-05-05T23:28:16.525Z,1.93
2019-05-05T23:30:46.288Z,2.13
2019-05-05T23:33:16.265Z,2.43
2019-05-05T23:35:46.029Z,2.23
2019-05-05T23:38:15.705Z,2.33
2019-05-05T23:40:45.556Z,2.57
2019-05-05T23:43:15.269Z,2.20
2019-05-05T23:45:45.469Z,2.80
2019-05-05T23:48:15.157Z,2.60
2019-05-05T23:50:45.022Z,2.40
2019-05-05T23:53:14.890Z,2.13
2019-05-05T23:55:45.684Z,2.50
2019-05-05T23:58:15.352Z,2.80
